Time;durP1;ratioP1;P1;durP2;ratioP2;P2;SDS_P1;SDS_P2;PMS_P1;PMS_P2;Temp;Humidity;BMP_temperature;BMP_pressure;BME280_temperature;BME280_humidity;BME280_pressure;Samples;Min_cycle;Max_cycle;Signal;HPM_P1;HPM_P2
2022/03/16 00:02:10;;;;;;;;;23.75;23.50;;;;;11.92;77.36;101476.03;5024237;28;45506;-82
2022/03/16 00:04:36;;;;;;;;;29.25;25.00;;;;;11.98;77.33;101478.94;5030769;28;45116;-86
2022/03/16 00:07:01;;;;;;;;;25.33;25.33;;;;;11.87;77.35;101466.22;5007246;28;46334;-84
2022/03/16 00:09:26;;;;;;;;;24.00;23.75;;;;;11.48;77.24;101393.47;5009548;28;45384;-86
2022/03/16 00:11:52;;;;;;;;;29.75;25.25;;;;;11.98;77.05;101484.22;5022639;28;45347;-80
2022/03/16 00:14:17;;;;;;;;;33.00;26.75;;;;;11.43;77.23;101382.75;5014309;28;45509;-86
2022/03/16 00:16:43;;;;;;;;;27.33;24.67;;;;;11.98;77.25;101477.19;5027414;28;45849;-86
2022/03/16 00:19:08;;;;;;;;;28.67;27.67;;;;;11.92;77.25;101468.13;5021433;28;45318;-90
2022/03/16 00:21:34;;;;;;;;;26.25;25.75;;;;;11.91;77.14;101461.97;5004063;28;45351;-84
2022/03/16 00:24:00;;;;;;;;;24.75;22.75;;;;;11.91;77.26;101466.34;5017378;28;45002;-87
2022/03/16 00:26:26;;;;;;;;;26.00;25.25;;;;;11.95;77.20;101476.16;5020135;28;45607;-85
2022/03/16 00:28:51;;;;;;;;;25.25;24.25;;;;;11.66;77.38;101424.91;5011996;28;45174;-82
2022/03/16 00:31:17;;;;;;;;;29.00;27.25;;;;;11.91;77.22;101466.34;5027595;28;45092;-89
2022/03/16 00:33:42;;;;;;;;;27.75;24.50;;;;;12.01;77.34;101479.03;5013663;28;45109;-89
2022/03/16 00:36:07;;;;;;;;;33.50;27.75;;;;;12.02;77.41;101465.97;5026328;28;45358;-90
2022/03/16 00:38:33;;;;;;;;;29.50;27.00;;;;;11.95;77.25;101449.81;5028551;28;45446;-80
2022/03/16 00:40:58;;;;;;;;;30.33;29.67;;;;;11.99;77.15;101447.38;5021561;28;45131;-85
2022/03/16 00:43:23;;;;;;;;;28.50;25.50;;;;;12.02;77.20;101458.06;5016025;28;45387;-91
2022/03/16 00:45:49;;;;;;;;;27.75;26.25;;;;;11.52;77.13;101362.03;5026760;28;45183;-83
2022/03/16 00:48:14;;;;;;;;;28.25;26.25;;;;;12.06;77.25;101456.41;5012759;28;45364;-89
2022/03/16 00:50:39;;;;;;;;;29.75;28.00;;;;;12.04;77.18;101450.19;5021712;28;45558;-86
2022/03/16 00:53:05;;;;;;;;;31.25;28.25;;;;;11.71;76.94;101381.22;5015666;28;45474;-90
2022/03/16 00:55:30;;;;;;;;;30.50;28.50;;;;;12.11;77.18;101454.84;5018202;28;45997;-90
2022/03/16 00:57:55;;;;;;;;;29.00;27.25;;;;;12.09;76.88;101446.91;5025105;28;45413;-81
2022/03/16 01:00:21;;;;;;;;;28.00;24.75;;;;;11.94;76.97;101413.78;5024767;28;45325;-90
2022/03/16 01:02:46;;;;;;;;;33.25;31.00;;;;;11.79;77.04;101382.44;5016244;28;45199;-85
2022/03/16 01:05:12;;;;;;;;;31.50;28.75;;;;;11.76;76.93;101377.03;5007730;28;45568;-90
2022/03/16 01:07:37;;;;;;;;;29.75;29.00;;;;;12.09;76.75;101433.72;5010006;28;45009;-84
2022/03/16 01:10:04;;;;;;;;;30.00;28.25;;;;;12.09;77.06;101432.84;5027764;28;45494;-82
2022/03/16 01:12:30;;;;;;;;;31.00;29.00;;;;;11.69;76.93;101348.69;5030180;28;45442;-85
2022/03/16 01:14:55;;;;;;;;;28.50;26.75;;;;;12.14;76.95;101426.00;5033989;28;45299;-88
2022/03/16 01:17:20;;;;;;;;;31.50;30.00;;;;;12.16;76.97;101424.31;5018744;28;45757;-92
2022/03/16 01:19:46;;;;;;;;;33.00;32.25;;;;;12.16;76.93;101415.50;5014537;28;45329;-77
2022/03/16 01:22:11;;;;;;;;;28.75;27.75;;;;;11.89;76.83;101374.09;5007389;28;45446;-78
2022/03/16 01:24:36;;;;;;;;;25.00;23.67;;;;;11.88;76.66;101364.41;4992756;28;47004;-89
2022/03/16 01:27:02;;;;;;;;;28.75;26.75;;;;;12.09;76.70;101390.69;5026071;28;45273;-85
2022/03/16 01:29:28;;;;;;;;;25.25;25.25;;;;;11.85;76.77;101357.25;5029253;28;45765;-78
2022/03/16 01:31:54;;;;;;;;;31.25;29.25;;;;;12.13;76.62;101400.50;5019874;28;45270;-91
2022/03/16 01:34:21;;;;;;;;;25.00;23.50;;;;;12.10;76.67;101401.25;5019342;28;45354;-91
2022/03/16 01:36:47;;;;;;;;;27.00;25.75;;;;;11.99;76.71;101391.16;5033286;28;45231;-90
2022/03/16 01:39:13;;;;;;;;;25.75;25.25;;;;;11.79;76.64;101356.09;5020270;28;45010;-86
2022/03/16 01:41:38;;;;;;;;;28.25;27.50;;;;;11.91;76.75;101382.94;5013157;28;45302;-89
2022/03/16 01:44:04;;;;;;;;;30.25;30.00;;;;;11.61;76.57;101337.81;5017146;28;45263;-89
2022/03/16 01:46:30;;;;;;;;;25.00;24.25;;;;;12.01;76.73;101407.91;5024797;28;45600;-91
2022/03/16 01:48:55;;;;;;;;;28.75;25.75;;;;;11.76;76.74;101375.31;5028528;28;45300;-84
2022/03/16 01:51:22;;;;;;;;;25.25;25.25;;;;;11.95;76.79;101419.09;5003355;28;45345;-91
2022/03/16 01:53:48;;;;;;;;;26.25;24.00;;;;;11.69;76.79;101375.91;5013088;28;45331;-88
2022/03/16 01:56:15;;;;;;;;;29.75;27.50;;;;;11.88;77.01;101410.06;5013088;28;45638;-84
2022/03/16 01:58:41;;;;;;;;;26.50;25.00;;;;;11.58;76.90;101364.06;5020649;28;45145;-89
2022/03/16 02:01:06;;;;;;;;;28.50;27.25;;;;;11.28;76.86;101314.59;5023963;28;45254;-87
2022/03/16 02:03:32;;;;;;;;;25.00;24.25;;;;;11.54;76.85;101370.03;5013701;28;45446;-90
2022/03/16 02:05:57;;;;;;;;;24.75;22.50;;;;;11.52;76.66;101374.31;5026025;28;45125;-89
2022/03/16 02:08:22;;;;;;;;;24.75;24.00;;;;;11.61;76.84;101393.13;5016841;28;44890;-83
2022/03/16 02:10:48;;;;;;;;;26.50;26.00;;;;;11.45;77.07;101378.44;5032692;28;45085;-92
2022/03/16 02:13:13;;;;;;;;;26.00;25.00;;;;;11.45;77.09;101391.59;5032730;28;45640;-93
2022/03/16 02:15:39;;;;;;;;;24.75;23.75;;;;;11.44;77.26;101391.53;5028817;28;45188;-87
2022/03/16 02:18:06;;;;;;;;;28.50;26.25;;;;;11.44;77.12;101400.34;5020356;28;45266;-94
2022/03/16 02:20:31;;;;;;;;;27.00;26.75;;;;;11.32;77.40;101387.53;5018334;28;45019;-85
2022/03/16 02:23:03;;;;;;;;;29.75;25.75;;;;;11.37;77.21;101403.53;5011600;28;45422;-87
2022/03/16 02:25:30;;;;;;;;;25.25;25.00;;;;;11.37;77.33;101400.91;5029093;28;45464;-86
2022/03/16 02:27:56;;;;;;;;;30.50;26.00;;;;;10.99;77.43;101338.81;5032637;28;45026;-92
2022/03/16 02:30:23;;;;;;;;;28.50;25.25;;;;;11.14;77.58;101378.91;5014496;28;44996;-88
2022/03/16 02:32:48;;;;;;;;;26.00;24.25;;;;;11.35;77.57;101407.84;5016639;28;46101;-86
2022/03/16 02:35:14;;;;;;;;;24.50;22.25;;;;;11.22;77.45;101371.31;5026743;28;45323;-89
2022/03/16 02:37:40;;;;;;;;;23.00;23.00;;;;;11.05;77.43;101339.06;5013166;28;45086;-90
2022/03/16 02:40:10;;;;;;;;;28.50;25.25;;;;;11.36;77.52;101389.47;5020513;28;45503;-78
2022/03/16 02:42:36;;;;;;;;;28.75;26.50;;;;;11.34;77.77;101398.16;5011076;28;45586;-84
2022/03/16 02:45:02;;;;;;;;;22.00;21.75;;;;;11.09;77.47;101341.88;5011786;28;45675;-86
2022/03/16 02:47:28;;;;;;;;;22.50;22.50;;;;;11.03;77.14;101322.28;5031584;28;45161;-88
2022/03/16 02:49:54;;;;;;;;;28.75;26.25;;;;;11.33;77.56;101375.31;5019968;28;45128;-89
2022/03/16 02:52:22;;;;;;;;;24.75;23.00;;;;;11.13;77.58;101331.47;5025475;28;45402;-84
2022/03/16 02:54:47;;;;;;;;;27.50;26.50;;;;;11.22;77.67;101351.16;5013262;28;45369;-89
2022/03/16 02:57:16;;;;;;;;;24.50;24.50;;;;;11.27;77.38;101361.88;5013121;28;45486;-89
2022/03/16 02:59:41;;;;;;;;;27.75;27.00;;;;;10.89;77.19;101295.44;5014860;28;45384;-90
2022/03/16 03:02:07;;;;;;;;;25.50;25.25;;;;;11.32;77.35;101378.75;5012458;28;46025;-86
2022/03/16 03:04:32;;;;;;;;;27.50;27.00;;;;;11.28;77.37;101377.75;5001605;28;45533;-89
2022/03/16 03:06:57;;;;;;;;;28.25;23.75;;;;;11.20;77.43;101365.09;4994463;28;45833;-85
2022/03/16 03:09:23;;;;;;;;;23.00;22.75;;;;;11.23;77.42;101384.56;4996599;28;45399;-83
2022/03/16 03:11:48;;;;;;;;;25.00;24.50;;;;;10.95;77.49;101336.88;4997364;28;45436;-85
2022/03/16 03:14:14;;;;;;;;;29.75;27.50;;;;;11.02;77.57;101354.69;5003486;28;45554;-85
2022/03/16 03:16:41;;;;;;;;;25.25;24.75;;;;;10.71;77.56;101299.91;5011230;28;45409;-82
2022/03/16 03:19:06;;;;;;;;;28.25;24.50;;;;;11.08;77.72;101371.66;5009436;28;45343;-79
2022/03/16 03:21:32;;;;;;;;;29.50;28.50;;;;;10.92;77.63;101340.25;5010613;28;45814;-84
2022/03/16 03:23:57;;;;;;;;;27.25;24.50;;;;;11.01;77.67;101348.53;5010151;28;45195;-78
2022/03/16 03:26:22;;;;;;;;;28.67;26.33;;;;;11.12;77.54;101372.66;5012096;28;45296;-78
2022/03/16 03:28:48;;;;;;;;;27.50;26.25;;;;;11.03;77.62;101356.47;5011357;28;45109;-86
2022/03/16 03:31:13;;;;;;;;;28.00;28.00;;;;;11.10;77.61;101375.22;5021394;28;46027;-78
2022/03/16 03:33:38;;;;;;;;;31.50;30.00;;;;;10.66;77.28;101309.31;5018456;28;45070;-84
2022/03/16 03:36:04;;;;;;;;;26.00;25.00;;;;;10.92;77.42;101360.41;5020868;28;45009;-78
2022/03/16 03:38:29;;;;;;;;;29.25;27.50;;;;;10.62;77.55;101304.75;5025556;28;45748;-86
2022/03/16 03:40:55;;;;;;;;;27.33;27.00;;;;;10.61;77.69;101314.38;5019525;28;46247;-90
2022/03/16 03:43:20;;;;;;;;;28.75;27.50;;;;;10.89;77.58;101365.53;5020234;28;45360;-88
2022/03/16 03:45:45;;;;;;;;;32.50;29.25;;;;;10.58;77.67;101322.13;5031970;28;45239;-90
2022/03/16 03:48:11;;;;;;;;;28.00;22.75;;;;;10.66;77.61;101332.97;5031022;28;45077;-80
2022/03/16 03:50:36;;;;;;;;;25.75;25.25;;;;;10.44;77.35;101302.22;5027557;28;45516;-86
2022/03/16 03:53:01;;;;;;;;;29.50;28.00;;;;;10.60;77.43;101331.00;5011096;28;45312;-88
2022/03/16 03:55:26;;;;;;;;;30.25;26.75;;;;;10.90;77.29;101388.38;5015775;28;45287;-83
2022/03/16 03:57:53;;;;;;;;;29.33;28.00;;;;;10.68;77.33;101354.97;5017981;28;45341;-87
2022/03/16 04:00:18;;;;;;;;;27.50;25.75;;;;;10.30;77.36;101292.03;5011656;28;45439;-86
2022/03/16 04:02:50;;;;;;;;;30.75;30.00;;;;;10.79;77.63;101380.03;5012322;28;45825;-86
2022/03/16 04:05:17;;;;;;;;;32.75;30.00;;;;;10.78;77.57;101372.94;5031003;28;45168;-89
2022/03/16 04:07:43;;;;;;;;;29.00;27.25;;;;;10.71;77.62;101366.53;5030822;28;45294;-86
2022/03/16 04:10:09;;;;;;;;;27.50;27.25;;;;;10.73;77.51;101377.09;5018186;28;45251;-85
2022/03/16 04:12:34;;;;;;;;;28.75;26.50;;;;;10.61;77.41;101347.66;5030865;28;45497;-89
2022/03/16 04:15:00;;;;;;;;;26.67;23.67;;;;;10.40;77.27;101330.13;5029410;28;45200;-86
2022/03/16 04:17:25;;;;;;;;;32.00;28.33;;;;;10.55;77.48;101348.28;5011254;28;45412;-84
2022/03/16 04:19:50;;;;;;;;;31.50;29.00;;;;;10.56;77.79;101352.72;5024695;28;45695;-88
2022/03/16 04:22:16;;;;;;;;;28.50;26.75;;;;;10.61;77.77;101361.69;5007297;28;45449;-91
2022/03/16 04:24:41;;;;;;;;;33.25;30.25;;;;;10.40;77.71;101323.97;5023501;28;45155;-93
2022/03/16 04:27:07;;;;;;;;;29.50;28.25;;;;;10.40;77.78;101323.97;5030883;28;45217;-90
2022/03/16 04:29:32;;;;;;;;;32.75;27.25;;;;;10.06;77.67;101275.13;5028202;28;45182;-88
2022/03/16 04:31:58;;;;;;;;;31.33;28.67;;;;;10.56;77.81;101368.47;5013260;28;45775;-85
2022/03/16 04:34:23;;;;;;;;;30.00;27.25;;;;;10.52;77.63;101351.66;5008455;28;45431;-88
2022/03/16 04:36:49;;;;;;;;;27.25;25.00;;;;;10.44;77.59;101328.50;4999754;28;46055;-88
2022/03/16 04:39:14;;;;;;;;;27.00;25.50;;;;;10.21;77.46;101295.94;4998353;28;45617;-84
2022/03/16 04:41:40;;;;;;;;;27.00;26.50;;;;;10.24;77.71;101302.22;5006003;28;46278;-86
2022/03/16 04:44:05;;;;;;;;;28.75;27.00;;;;;10.48;77.56;101343.56;5006222;28;45832;-91
2022/03/16 04:46:31;;;;;;;;;27.50;26.50;;;;;10.25;77.55;101308.41;5024212;28;45317;-86
2022/03/16 04:48:56;;;;;;;;;28.00;26.75;;;;;10.32;77.64;101321.88;5021038;28;45667;-90
2022/03/16 04:51:21;;;;;;;;;30.75;27.50;;;;;10.46;77.69;101345.25;4996558;28;46468;-83
2022/03/16 04:53:47;;;;;;;;;36.33;29.33;;;;;10.15;77.87;101308.75;5029972;28;44927;-89
2022/03/16 04:56:13;;;;;;;;;28.25;26.50;;;;;10.42;77.65;101359.06;5009228;28;45194;-83
2022/03/16 04:58:38;;;;;;;;;30.75;27.00;;;;;10.44;77.72;101360.03;5010326;28;45205;-90
2022/03/16 05:01:04;;;;;;;;;32.00;31.00;;;;;10.37;77.61;101344.84;5015123;28;45113;-83
2022/03/16 05:03:29;;;;;;;;;31.75;26.25;;;;;10.40;77.71;101350.25;5026299;28;45296;-81
2022/03/16 05:05:54;;;;;;;;;32.50;30.00;;;;;9.85;77.84;101259.28;5009848;28;45408;-81
2022/03/16 05:08:20;;;;;;;;;30.67;29.00;;;;;10.10;77.79;101292.81;5007151;28;45531;-88
2022/03/16 05:10:45;;;;;;;;;33.50;29.50;;;;;10.00;77.72;101277.44;5006219;28;45844;-84
2022/03/16 05:13:10;;;;;;;;;32.50;29.00;;;;;10.33;78.00;101334.19;5007673;28;45502;-84
2022/03/16 05:15:36;;;;;;;;;28.00;26.75;;;;;10.39;77.73;101333.53;5018777;28;45441;-82
2022/03/16 05:18:01;;;;;;;;;26.50;25.25;;;;;10.41;77.82;101341.53;5010242;28;45279;-89
2022/03/16 05:20:27;;;;;;;;;28.00;27.00;;;;;10.11;77.98;101294.63;5011017;28;45072;-91
2022/03/16 05:22:53;;;;;;;;;31.00;27.75;;;;;10.00;77.62;101275.75;5009697;28;45804;-91
2022/03/16 05:25:22;;;;;;;;;30.75;30.00;;;;;10.39;77.72;101348.41;5012275;28;45160;-91
2022/03/16 05:27:47;;;;;;;;;37.75;32.25;;;;;10.25;77.82;101330.31;5026212;28;45053;-82
2022/03/16 05:30:13;;;;;;;;;35.00;31.75;;;;;9.93;77.70;101283.28;5014396;28;45109;-86
2022/03/16 05:32:41;;;;;;;;;31.00;29.25;;;;;10.36;77.97;101362.34;5021416;28;45124;-86
2022/03/16 05:35:08;;;;;;;;;26.25;25.25;;;;;10.09;78.00;101312.00;5013637;28;45066;-87
2022/03/16 05:37:33;;;;;;;;;32.00;30.00;;;;;10.29;77.85;101337.50;5010650;28;45693;-87
2022/03/16 05:39:59;;;;;;;;;36.50;33.75;;;;;10.38;77.88;101358.03;5010352;28;45097;-88
2022/03/16 05:42:24;;;;;;;;;34.50;29.00;;;;;9.99;77.66;101292.31;5020256;28;45128;-89
2022/03/16 05:44:54;;;;;;;;;26.00;25.50;;;;;10.36;77.75;101356.19;5025016;28;45043;-84
2022/03/16 05:47:23;;;;;;;;;33.50;30.75;;;;;10.32;77.83;101361.28;5012135;28;47479;-79
2022/03/16 05:49:55;;;;;;;;;33.00;32.00;;;;;10.35;77.83;101370.16;5011180;28;45430;-86
2022/03/16 05:52:22;;;;;;;;;32.25;30.00;;;;;10.21;77.61;101343.22;5009666;28;45196;-88
2022/03/16 05:54:49;;;;;;;;;35.00;31.00;;;;;10.24;77.71;101346.00;5016875;28;45160;-84
2022/03/16 05:57:15;;;;;;;;;30.25;27.50;;;;;10.26;78.20;101350.50;5013869;28;45299;-91
2022/03/16 05:59:42;;;;;;;;;28.50;27.25;;;;;9.93;77.65;101299.03;5029112;28;45130;-93
2022/03/16 06:02:08;;;;;;;;;30.25;29.50;;;;;10.33;77.92;101357.81;5016183;28;45089;-91
2022/03/16 06:04:34;;;;;;;;;39.25;34.75;;;;;9.76;77.75;101257.16;5022237;28;45152;-86
2022/03/16 06:07:00;;;;;;;;;30.75;29.25;;;;;10.30;77.94;101356.81;5032626;28;45389;-77
2022/03/16 06:09:25;;;;;;;;;29.00;26.33;;;;;10.24;78.03;101352.16;5032586;28;45155;-89
2022/03/16 06:11:50;;;;;;;;;34.00;31.75;;;;;10.24;77.74;101360.03;5013345;28;45642;-94
2022/03/16 06:14:16;;;;;;;;;30.67;29.67;;;;;9.89;77.64;101284.84;5031213;28;45369;-90
2022/03/16 06:16:41;;;;;;;;;32.00;29.75;;;;;9.95;77.59;101289.47;5032686;28;45503;-89
2022/03/16 06:19:06;;;;;;;;;33.00;32.75;;;;;10.33;77.81;101364.81;5032116;28;45295;-85
2022/03/16 06:21:32;;;;;;;;;32.67;31.00;;;;;10.18;78.06;101340.44;5030975;28;45175;-83
2022/03/16 06:23:57;;;;;;;;;35.50;30.75;;;;;10.35;77.89;101371.06;5023006;28;45699;-90
2022/03/16 06:26:22;;;;;;;;;35.67;33.00;;;;;10.41;78.00;101375.69;5012781;28;46068;-89
2022/03/16 06:28:47;;;;;;;;;34.00;30.33;;;;;10.39;77.96;101364.19;5013221;28;46358;-89
2022/03/16 06:31:13;;;;;;;;;36.00;32.33;;;;;10.37;77.86;101371.09;5021665;28;44985;-92
2022/03/16 06:33:38;;;;;;;;;35.67;32.00;;;;;10.44;77.95;101389.88;5032463;28;45185;-91
2022/03/16 06:36:04;;;;;;;;;38.00;34.00;;;;;10.26;77.82;101342.63;5032807;28;45149;-89
2022/03/16 06:38:29;;;;;;;;;36.00;33.25;;;;;10.18;77.92;101325.56;5032151;28;45151;-87
2022/03/16 06:40:54;;;;;;;;;40.33;34.67;;;;;10.51;77.91;101385.78;5030991;28;45034;-86
2022/03/16 06:43:21;;;;;;;;;35.50;32.50;;;;;10.51;77.93;101388.41;5027740;28;45057;-87
2022/03/16 06:45:46;;;;;;;;;35.00;32.75;;;;;10.15;77.81;101330.69;5014715;28;45712;-89
2022/03/16 06:48:12;;;;;;;;;39.50;33.50;;;;;10.04;77.75;101311.81;5010991;28;45322;-79
2022/03/16 06:50:37;;;;;;;;;37.33;34.33;;;;;10.57;77.82;101407.06;5032107;28;45133;-93
2022/03/16 06:53:03;;;;;;;;;40.25;36.00;;;;;10.58;77.80;101412.38;5024114;28;45013;-91
2022/03/16 06:55:28;;;;;;;;;37.25;33.75;;;;;10.31;77.57;101361.22;5037291;28;45391;-90
2022/03/16 06:57:54;;;;;;;;;36.25;34.25;;;;;10.25;77.72;101342.56;5028266;28;45203;-93
2022/03/16 07:00:19;;;;;;;;;35.00;32.25;;;;;10.19;77.83;101321.22;5019642;28;45389;-95
2022/03/16 07:02:55;;;;;;;;;38.25;33.75;;;;;10.69;77.86;101399.75;5031527;28;45050;-86
2022/03/16 07:05:25;;;;;;;;;38.50;34.00;;;;;10.72;77.88;101399.88;5025669;28;45778;-86
2022/03/16 07:07:51;;;;;;;;;35.00;33.75;;;;;10.74;77.98;101406.09;5020210;28;45213;-89
2022/03/16 07:10:16;;;;;;;;;37.25;34.50;;;;;10.78;77.61;101401.84;5016736;28;45675;-80
2022/03/16 07:12:42;;;;;;;;;34.00;33.25;;;;;10.78;77.91;101402.75;5023796;28;45184;-85
2022/03/16 07:15:08;;;;;;;;;45.00;37.75;;;;;10.78;77.86;101386.09;5024388;28;45822;-89
2022/03/16 07:17:33;;;;;;;;;42.25;36.25;;;;;10.89;77.80;101400.63;5025044;28;45237;-82
2022/03/16 07:19:58;;;;;;;;;34.75;33.75;;;;;10.75;77.80;101370.19;5026618;28;45140;-80
2022/03/16 07:22:24;;;;;;;;;38.33;35.33;;;;;10.81;77.61;101376.59;5018952;28;45292;-87
2022/03/16 07:24:49;;;;;;;;;36.67;34.00;;;;;10.82;77.86;101364.34;5022171;28;45829;-88
2022/03/16 07:27:15;;;;;;;;;38.67;34.00;;;;;11.00;77.64;101387.94;5008828;28;45491;-88
2022/03/16 07:29:40;;;;;;;;;35.75;32.00;;;;;10.89;77.49;101376.06;5027574;28;45191;-78
2022/03/16 07:32:07;;;;;;;;;36.25;34.25;;;;;10.54;77.39;101312.31;5016667;28;45140;-80
2022/03/16 07:34:40;;;;;;;;;39.25;33.75;;;;;10.64;77.67;101337.25;5017889;28;45771;-77
2022/03/16 07:37:06;;;;;;;;;37.25;34.75;;;;;11.11;77.16;101408.59;5028209;28;45274;-79
2022/03/16 07:39:31;;;;;;;;;43.50;39.00;;;;;10.65;77.31;101331.19;5028865;28;45113;-94
2022/03/16 07:41:57;;;;;;;;;40.00;36.75;;;;;11.11;77.29;101399.81;5010066;28;45228;-80
2022/03/16 07:44:23;;;;;;;;;37.50;34.25;;;;;10.74;77.31;101340.38;5029414;28;46058;-92
2022/03/16 07:46:48;;;;;;;;;33.00;32.50;;;;;11.03;77.46;101377.53;5030201;28;45011;-80
2022/03/16 07:49:14;;;;;;;;;36.75;34.00;;;;;11.15;77.33;101395.59;5008146;28;45168;-89
2022/03/16 07:51:40;;;;;;;;;37.00;33.50;;;;;11.05;77.30;101368.88;5014670;28;45383;-78
2022/03/16 07:54:05;;;;;;;;;40.25;35.00;;;;;11.01;77.12;101366.94;5024153;28;45679;-78
2022/03/16 07:56:31;;;;;;;;;39.75;36.50;;;;;11.30;77.22;101398.84;5026867;28;45368;-79
2022/03/16 07:59:01;;;;;;;;;48.00;37.50;;;;;11.33;77.04;101405.16;5027380;28;45243;-77
2022/03/16 08:01:26;;;;;;;;;36.50;34.00;;;;;11.19;77.03;101376.47;5028097;28;45121;-78
2022/03/16 08:03:52;;;;;;;;;40.25;36.25;;;;;11.20;77.40;101381.78;5028328;28;45920;-82
2022/03/16 08:06:24;;;;;;;;;39.00;35.50;;;;;10.89;76.83;101327.00;5010826;28;45266;-88
2022/03/16 08:09:01;;;;;;;;;47.00;40.00;;;;;10.90;76.87;101325.25;4995438;28;45527;-85
2022/03/16 08:11:26;;;;;;;;;44.25;38.00;;;;;11.44;76.90;101412.59;5009060;28;45431;-86
2022/03/16 08:13:55;;;;;;;;;40.75;36.75;;;;;10.53;76.63;101237.81;5009899;28;47686;-85
2022/03/16 08:16:20;;;;;;;;;43.50;37.00;;;;;10.94;76.72;101314.94;5010808;28;45297;-88
2022/03/16 08:18:46;;;;;;;;;45.50;39.25;;;;;11.47;76.50;101404.81;5027049;28;45166;-86
2022/03/16 08:21:12;;;;;;;;;42.00;36.25;;;;;10.59;76.60;101227.59;5009441;28;45022;-88
2022/03/16 08:23:38;;;;;;;;;40.75;36.00;;;;;11.51;77.07;101388.31;5026233;28;47579;-83
2022/03/16 08:26:03;;;;;;;;;48.75;39.00;;;;;11.03;76.46;101310.06;5018504;28;45633;-89
2022/03/16 08:28:29;;;;;;;;;40.50;35.00;;;;;11.53;76.61;101397.19;5020150;28;45270;-86
2022/03/16 08:30:54;;;;;;;;;41.00;36.25;;;;;10.92;76.39;101273.59;5027174;28;45288;-85
2022/03/16 08:33:20;;;;;;;;;39.50;35.25;;;;;10.83;76.48;101260.97;5027746;28;45502;-85
2022/03/16 08:35:46;;;;;;;;;42.33;36.67;;;;;11.62;76.83;101405.44;5028954;28;45120;-85
2022/03/16 08:38:11;;;;;;;;;38.75;35.00;;;;;11.38;76.34;101344.81;5009487;28;45276;-77
2022/03/16 08:40:37;;;;;;;;;40.25;36.25;;;;;11.35;76.41;101340.31;5011347;28;45574;-77
2022/03/16 08:43:03;;;;;;;;;44.25;38.50;;;;;11.75;76.22;101393.69;5020991;28;45173;-77
2022/03/16 08:45:28;;;;;;;;;43.50;38.25;;;;;11.12;75.82;101280.59;5023655;28;45294;-78
2022/03/16 08:47:54;;;;;;;;;45.00;35.75;;;;;11.22;76.18;101284.47;5006128;28;44992;-82
2022/03/16 08:50:20;;;;;;;;;41.50;37.00;;;;;11.81;76.24;101378.13;5019649;28;45224;-77
2022/03/16 08:52:47;;;;;;;;;42.00;37.75;;;;;11.44;75.88;101331.91;5021430;28;44913;-87
2022/03/16 08:55:15;;;;;;;;;39.50;36.00;;;;;11.59;75.97;101344.78;5027552;28;45208;-90
2022/03/16 08:57:43;;;;;;;;;45.00;38.25;;;;;12.04;75.80;101416.84;5029419;28;45428;-77
2022/03/16 09:00:09;;;;;;;;;41.50;36.50;;;;;11.60;75.53;101333.41;5021226;28;45276;-78
2022/03/16 09:02:35;;;;;;;;;45.25;38.50;;;;;11.52;75.66;101314.66;5014876;28;46269;-76
2022/03/16 09:05:00;;;;;;;;;45.50;38.50;;;;;12.17;75.59;101419.94;5016002;28;45180;-82
2022/03/16 09:07:26;;;;;;;;;42.00;37.00;;;;;11.57;75.54;101306.94;5025518;28;45096;-87
2022/03/16 09:09:51;;;;;;;;;44.33;35.67;;;;;11.62;75.25;101330.00;5023892;28;45273;-80
2022/03/16 09:12:17;;;;;;;;;42.75;37.00;;;;;11.71;75.03;101323.28;5018911;28;45020;-88
2022/03/16 09:14:43;;;;;;;;;43.50;36.25;;;;;11.84;75.15;101331.78;5023196;28;45426;-82
2022/03/16 09:17:12;;;;;;;;;43.50;37.00;;;;;12.28;75.54;101402.81;5017688;28;45156;-79
2022/03/16 09:19:38;;;;;;;;;44.75;36.75;;;;;11.71;75.15;101287.31;5014810;28;45188;-80
2022/03/16 09:22:04;;;;;;;;;41.00;36.50;;;;;11.97;74.66;101329.59;5009737;28;45754;-89
2022/03/16 09:24:29;;;;;;;;;46.75;40.50;;;;;12.13;74.82;101334.63;5015698;28;45104;-78
2022/03/16 09:26:58;;;;;;;;;45.50;38.00;;;;;12.08;74.52;101338.81;5015087;28;45570;-83
2022/03/16 09:29:23;;;;;;;;;46.00;38.75;;;;;12.08;74.53;101323.03;5017283;28;45479;-83
2022/03/16 09:31:49;;;;;;;;;41.50;36.75;;;;;12.60;74.29;101410.19;5009947;28;45844;-85
2022/03/16 09:34:14;;;;;;;;;46.00;37.33;;;;;12.54;74.26;101395.88;5017881;28;45126;-85
2022/03/16 09:36:42;;;;;;;;;42.75;37.00;;;;;12.67;74.10;101408.69;5013167;28;45222;-91
2022/03/16 09:39:09;;;;;;;;;39.75;35.50;;;;;12.71;73.88;101407.97;5010800;28;45312;-91
2022/03/16 09:41:36;;;;;;;;;39.75;35.50;;;;;12.73;73.75;101411.53;5032470;28;45311;-87
2022/03/16 09:44:01;;;;;;;;;45.50;39.00;;;;;12.64;73.34;101376.91;5030348;28;45460;-93
2022/03/16 09:46:32;;;;;;;;;40.25;35.00;;;;;12.82;73.60;101403.06;5029695;28;45427;-78
2022/03/16 09:48:59;;;;;;;;;43.50;38.50;;;;;12.77;73.62;101378.28;5010684;28;45116;-85
2022/03/16 09:51:25;;;;;;;;;44.25;38.00;;;;;12.77;73.32;101368.63;5003324;28;45603;-82
2022/03/16 09:53:52;;;;;;;;;45.00;37.50;;;;;12.86;73.78;101376.88;5012915;28;45889;-79
2022/03/16 09:56:19;;;;;;;;;43.25;37.00;;;;;13.04;73.51;101397.69;5014290;28;45774;-84
2022/03/16 09:58:44;;;;;;;;;45.25;39.00;;;;;13.11;73.59;101396.19;5013684;28;45485;-79
2022/03/16 10:01:10;;;;;;;;;43.25;38.25;;;;;13.17;73.26;101396.41;5010212;28;45939;-79
2022/03/16 10:03:36;;;;;;;;;39.50;36.00;;;;;13.06;72.99;101367.00;4997002;28;45524;-82
2022/03/16 10:06:06;;;;;;;;;44.50;38.75;;;;;13.26;73.25;101391.47;5008617;28;45904;-86
2022/03/16 10:08:34;;;;;;;;;43.00;35.75;;;;;13.33;72.81;101393.44;5018260;28;45071;-88
2022/03/16 10:14:14;;;;;;;;;44.50;36.25;;;;;13.19;72.56;101360.38;5007960;28;47843;-78
2022/03/16 10:19:51;;;;;;;;;43.00;36.25;;;;;13.18;72.72;101335.72;5011680;28;45911;-83
2022/03/16 10:22:30;;;;;;;;;42.75;36.25;;;;;13.60;72.41;101395.25;5004582;28;47165;-78
2022/03/16 10:25:03;;;;;;;;;41.75;36.00;;;;;13.69;72.24;101387.59;5001514;28;45830;-88
2022/03/16 10:27:28;;;;;;;;;46.00;38.75;;;;;13.21;72.41;101292.72;4999939;28;47003;-79
2022/03/16 10:29:54;;;;;;;;;41.75;36.75;;;;;13.63;71.81;101366.25;5006641;28;45462;-79
2022/03/16 10:32:24;;;;;;;;;42.25;35.75;;;;;13.60;71.69;101340.66;5012458;28;46480;-81
2022/03/16 10:34:55;;;;;;;;;44.50;37.75;;;;;13.88;71.58;101379.38;5016044;28;45611;-79
2022/03/16 10:37:22;;;;;;;;;47.50;38.50;;;;;13.92;71.59;101380.41;5015476;28;45220;-86
2022/03/16 10:39:52;;;;;;;;;38.00;34.50;;;;;13.99;71.31;101374.47;5009808;28;46905;-79
2022/03/16 10:48:16;;;;;;;;;42.25;37.00;;;;;14.22;70.81;101361.91;5011133;28;45218;-78
2022/03/16 10:50:43;;;;;;;;;45.50;38.25;;;;;14.12;70.60;101333.41;5007707;28;45446;-81
2022/03/16 10:53:17;;;;;;;;;44.00;38.00;;;;;14.36;70.19;101362.34;4990933;28;47205;-82
2022/03/16 10:55:45;;;;;;;;;44.75;37.75;;;;;14.23;70.05;101323.16;4994706;28;45370;-79
2022/03/16 10:58:12;;;;;;;;;42.00;37.25;;;;;14.28;70.24;101314.50;5002166;28;45580;-82
2022/03/16 11:00:39;;;;;;;;;43.50;38.00;;;;;14.58;70.36;101358.56;5034858;28;45117;-78
2022/03/16 11:03:07;;;;;;;;;44.75;38.00;;;;;14.67;69.72;101345.59;5034441;28;45438;-79
2022/03/16 11:05:37;;;;;;;;;41.00;35.25;;;;;14.66;69.57;101331.47;5022772;28;45640;-89
2022/03/16 11:08:07;;;;;;;;;39.75;34.25;;;;;14.77;69.19;101329.13;5025462;28;45230;-88
2022/03/16 11:10:41;;;;;;;;;45.25;37.50;;;;;14.80;69.08;101323.03;5032385;28;45002;-83
2022/03/16 11:13:29;;;;;;;;;38.25;35.00;;;;;14.91;68.93;101333.03;5022410;28;45480;-86
2022/03/16 11:15:57;;;;;;;;;42.50;37.00;;;;;14.88;69.34;101322.38;5028348;28;45360;-78
2022/03/16 11:18:23;;;;;;;;;38.25;33.75;;;;;14.76;69.37;101298.22;5029033;28;45212;-77